sensor_id;sensor_type;location;lat;lon;timestamp;temperature;humidity
25328;DHT22;13279;51.300;12.394;2023-07-02T00:02:16;17.00;99.90
25328;DHT22;13279;51.300;12.394;2023-07-02T00:04:45;17.00;99.90
25328;DHT22;13279;51.300;12.394;2023-07-02T00:07:12;17.00;99.90
25328;DHT22;13279;51.300;12.394;2023-07-02T00:09:40;17.00;99.90
25328;DHT22;13279;51.300;12.394;2023-07-02T00:12:08;17.00;99.90
25328;DHT22;13279;51.300;12.394;2023-07-02T00:14:37;17.00;99.90
25328;DHT22;13279;51.300;12.394;2023-07-02T00:17:05;17.10;99.90
25328;DHT22;13279;51.300;12.394;2023-07-02T00:19:33;17.10;99.90
25328;DHT22;13279;51.300;12.394;2023-07-02T00:22:00;17.10;99.90
25328;DHT22;13279;51.300;12.394;2023-07-02T00:24:28;17.10;99.90
25328;DHT22;13279;51.300;12.394;2023-07-02T00:26:56;17.10;99.90
25328;DHT22;13279;51.300;12.394;2023-07-02T00:29:23;17.10;99.90
25328;DHT22;13279;51.300;12.394;2023-07-02T00:31:52;17.10;99.90
25328;DHT22;13279;51.300;12.394;2023-07-02T00:34:19;17.10;99.90
25328;DHT22;13279;51.300;12.394;2023-07-02T00:36:47;17.20;99.90
25328;DHT22;13279;51.300;12.394;2023-07-02T00:39:15;17.10;99.90
25328;DHT22;13279;51.300;12.394;2023-07-02T00:41:44;17.10;99.90
25328;DHT22;13279;51.300;12.394;2023-07-02T00:44:12;17.10;99.90
25328;DHT22;13279;51.300;12.394;2023-07-02T00:46:40;17.20;99.90
25328;DHT22;13279;51.300;12.394;2023-07-02T00:49:09;17.20;99.90
25328;DHT22;13279;51.300;12.394;2023-07-02T00:51:37;17.20;99.90
25328;DHT22;13279;51.300;12.394;2023-07-02T00:54:05;17.10;99.90
25328;DHT22;13279;51.300;12.394;2023-07-02T00:56:33;17.20;99.90
25328;DHT22;13279;51.300;12.394;2023-07-02T00:59:00;17.20;99.90
25328;DHT22;13279;51.300;12.394;2023-07-02T01:01:28;17.20;99.90
25328;DHT22;13279;51.300;12.394;2023-07-02T01:03:57;17.20;99.90
25328;DHT22;13279;51.300;12.394;2023-07-02T01:06:28;17.30;99.90
25328;DHT22;13279;51.300;12.394;2023-07-02T01:08:58;17.20;99.90
25328;DHT22;13279;51.300;12.394;2023-07-02T01:11:28;17.20;99.90
25328;DHT22;13279;51.300;12.394;2023-07-02T01:13:59;17.30;99.90
25328;DHT22;13279;51.300;12.394;2023-07-02T01:16:30;17.30;99.90
25328;DHT22;13279;51.300;12.394;2023-07-02T01:18:59;17.30;99.90
25328;DHT22;13279;51.300;12.394;2023-07-02T01:21:33;17.20;99.90
25328;DHT22;13279;51.300;12.394;2023-07-02T01:24:01;17.20;99.90
25328;DHT22;13279;51.300;12.394;2023-07-02T01:26:30;17.20;99.90
25328;DHT22;13279;51.300;12.394;2023-07-02T01:29:00;17.20;99.90
25328;DHT22;13279;51.300;12.394;2023-07-02T01:31:38;17.20;99.90
25328;DHT22;13279;51.300;12.394;2023-07-02T01:34:05;17.30;99.90
25328;DHT22;13279;51.300;12.394;2023-07-02T01:36:35;17.20;99.90
25328;DHT22;13279;51.300;12.394;2023-07-02T01:39:03;17.30;99.90
25328;DHT22;13279;51.300;12.394;2023-07-02T01:41:33;17.30;99.90
25328;DHT22;13279;51.300;12.394;2023-07-02T01:44:00;17.30;99.90
25328;DHT22;13279;51.300;12.394;2023-07-02T01:46:28;17.30;99.90
25328;DHT22;13279;51.300;12.394;2023-07-02T01:48:55;17.30;99.90
25328;DHT22;13279;51.300;12.394;2023-07-02T01:51:23;17.30;99.90
25328;DHT22;13279;51.300;12.394;2023-07-02T01:53:51;17.30;99.90
25328;DHT22;13279;51.300;12.394;2023-07-02T01:56:19;17.30;99.90
25328;DHT22;13279;51.300;12.394;2023-07-02T01:58:46;17.30;99.90
25328;DHT22;13279;51.300;12.394;2023-07-02T02:01:14;17.30;99.90
25328;DHT22;13279;51.300;12.394;2023-07-02T02:03:41;17.30;99.90
25328;DHT22;13279;51.300;12.394;2023-07-02T02:06:09;17.30;99.90
25328;DHT22;13279;51.300;12.394;2023-07-02T02:08:36;17.20;99.90
25328;DHT22;13279;51.300;12.394;2023-07-02T02:11:05;17.20;99.90
25328;DHT22;13279;51.300;12.394;2023-07-02T02:13:33;17.20;99.90
25328;DHT22;13279;51.300;12.394;2023-07-02T02:16:00;17.20;99.90
25328;DHT22;13279;51.300;12.394;2023-07-02T02:18:28;17.20;99.90
25328;DHT22;13279;51.300;12.394;2023-07-02T02:20:55;17.20;99.90
25328;DHT22;13279;51.300;12.394;2023-07-02T02:23:23;17.20;99.90
25328;DHT22;13279;51.300;12.394;2023-07-02T02:25:51;17.20;99.90
25328;DHT22;13279;51.300;12.394;2023-07-02T02:28:19;17.20;99.90
25328;DHT22;13279;51.300;12.394;2023-07-02T02:30:47;17.20;99.90
25328;DHT22;13279;51.300;12.394;2023-07-02T02:33:14;17.10;99.90
25328;DHT22;13279;51.300;12.394;2023-07-02T02:35:43;17.10;99.90
25328;DHT22;13279;51.300;12.394;2023-07-02T02:38:12;17.10;99.90
25328;DHT22;13279;51.300;12.394;2023-07-02T02:40:41;17.10;99.90
25328;DHT22;13279;51.300;12.394;2023-07-02T02:43:10;17.10;99.90
25328;DHT22;13279;51.300;12.394;2023-07-02T02:45:39;17.10;99.90
25328;DHT22;13279;51.300;12.394;2023-07-02T02:48:07;17.10;99.90
25328;DHT22;13279;51.300;12.394;2023-07-02T02:50:36;17.10;99.90
25328;DHT22;13279;51.300;12.394;2023-07-02T02:53:07;17.10;99.90
25328;DHT22;13279;51.300;12.394;2023-07-02T02:55:35;17.10;99.90
25328;DHT22;13279;51.300;12.394;2023-07-02T02:58:03;17.10;99.90
25328;DHT22;13279;51.300;12.394;2023-07-02T03:00:30;17.00;99.90
25328;DHT22;13279;51.300;12.394;2023-07-02T03:03:00;17.00;99.90
25328;DHT22;13279;51.300;12.394;2023-07-02T03:05:28;16.90;99.90
25328;DHT22;13279;51.300;12.394;2023-07-02T03:07:56;16.90;99.90
25328;DHT22;13279;51.300;12.394;2023-07-02T03:10:23;16.80;99.90
25328;DHT22;13279;51.300;12.394;2023-07-02T03:12:50;16.80;99.90
25328;DHT22;13279;51.300;12.394;2023-07-02T03:15:18;16.80;99.90
25328;DHT22;13279;51.300;12.394;2023-07-02T03:17:45;16.70;99.90
25328;DHT22;13279;51.300;12.394;2023-07-02T03:20:14;16.70;99.90
25328;DHT22;13279;51.300;12.394;2023-07-02T03:22:42;16.70;99.90
25328;DHT22;13279;51.300;12.394;2023-07-02T03:25:10;16.70;99.90
25328;DHT22;13279;51.300;12.394;2023-07-02T03:27:37;16.70;99.90
25328;DHT22;13279;51.300;12.394;2023-07-02T03:30:06;16.70;99.90
25328;DHT22;13279;51.300;12.394;2023-07-02T03:32:33;16.70;99.90
25328;DHT22;13279;51.300;12.394;2023-07-02T03:35:01;16.70;99.90
25328;DHT22;13279;51.300;12.394;2023-07-02T03:37:29;16.70;99.90
25328;DHT22;13279;51.300;12.394;2023-07-02T03:39:57;16.70;99.90
25328;DHT22;13279;51.300;12.394;2023-07-02T03:42:25;16.70;99.90
25328;DHT22;13279;51.300;12.394;2023-07-02T03:44:52;16.70;99.90
25328;DHT22;13279;51.300;12.394;2023-07-02T03:47:20;16.60;99.90
25328;DHT22;13279;51.300;12.394;2023-07-02T03:49:47;16.70;99.90
25328;DHT22;13279;51.300;12.394;2023-07-02T03:52:15;16.70;99.90
25328;DHT22;13279;51.300;12.394;2023-07-02T03:54:44;16.70;99.90
25328;DHT22;13279;51.300;12.394;2023-07-02T03:57:11;16.70;99.90
25328;DHT22;13279;51.300;12.394;2023-07-02T03:59:39;16.70;99.90
25328;DHT22;13279;51.300;12.394;2023-07-02T04:02:06;16.70;99.90
25328;DHT22;13279;51.300;12.394;2023-07-02T04:04:34;16.60;99.90
25328;DHT22;13279;51.300;12.394;2023-07-02T04:07:01;16.70;99.90
25328;DHT22;13279;51.300;12.394;2023-07-02T04:09:29;16.70;99.90
25328;DHT22;13279;51.300;12.394;2023-07-02T04:12:00;16.70;99.90
25328;DHT22;13279;51.300;12.394;2023-07-02T04:14:27;16.60;99.90
25328;DHT22;13279;51.300;12.394;2023-07-02T04:16:55;16.70;99.90
25328;DHT22;13279;51.300;12.394;2023-07-02T04:19:22;16.70;99.90
25328;DHT22;13279;51.300;12.394;2023-07-02T04:21:49;16.70;99.90
25328;DHT22;13279;51.300;12.394;2023-07-02T04:24:17;16.70;99.90
25328;DHT22;13279;51.300;12.394;2023-07-02T04:26:44;16.60;99.90
25328;DHT22;13279;51.300;12.394;2023-07-02T04:29:13;16.70;99.90
25328;DHT22;13279;51.300;12.394;2023-07-02T04:31:40;16.70;99.90
25328;DHT22;13279;51.300;12.394;2023-07-02T04:34:08;16.70;99.90
25328;DHT22;13279;51.300;12.394;2023-07-02T04:36:35;16.80;99.90
25328;DHT22;13279;51.300;12.394;2023-07-02T04:39:03;16.80;99.90
25328;DHT22;13279;51.300;12.394;2023-07-02T04:41:30;16.80;99.90
25328;DHT22;13279;51.300;12.394;2023-07-02T04:43:58;16.80;99.90
25328;DHT22;13279;51.300;12.394;2023-07-02T04:46:28;16.90;99.90
25328;DHT22;13279;51.300;12.394;2023-07-02T04:48:56;16.90;99.90
25328;DHT22;13279;51.300;12.394;2023-07-02T04:51:23;17.00;99.90
25328;DHT22;13279;51.300;12.394;2023-07-02T04:53:50;17.10;99.90
25328;DHT22;13279;51.300;12.394;2023-07-02T04:56:18;17.10;99.90
25328;DHT22;13279;51.300;12.394;2023-07-02T04:58:45;17.10;99.90
25328;DHT22;13279;51.300;12.394;2023-07-02T05:01:12;17.10;99.90
25328;DHT22;13279;51.300;12.394;2023-07-02T05:03:41;17.20;99.90
25328;DHT22;13279;51.300;12.394;2023-07-02T05:06:08;17.20;99.90
25328;DHT22;13279;51.300;12.394;2023-07-02T05:08:36;17.20;99.90
25328;DHT22;13279;51.300;12.394;2023-07-02T05:11:03;17.30;99.90
25328;DHT22;13279;51.300;12.394;2023-07-02T05:13:31;17.30;99.90
25328;DHT22;13279;51.300;12.394;2023-07-02T05:15:58;17.30;99.90
25328;DHT22;13279;51.300;12.394;2023-07-02T05:18:26;17.30;99.90
25328;DHT22;13279;51.300;12.394;2023-07-02T05:20:54;17.30;99.90
25328;DHT22;13279;51.300;12.394;2023-07-02T05:23:21;17.30;99.90
25328;DHT22;13279;51.300;12.394;2023-07-02T05:25:48;17.30;99.90
25328;DHT22;13279;51.300;12.394;2023-07-02T05:28:16;17.30;99.90
25328;DHT22;13279;51.300;12.394;2023-07-02T05:30:43;17.40;99.90
25328;DHT22;13279;51.300;12.394;2023-07-02T05:33:11;17.50;99.90
25328;DHT22;13279;51.300;12.394;2023-07-02T05:35:38;17.60;99.90
25328;DHT22;13279;51.300;12.394;2023-07-02T05:38:07;17.60;99.90
25328;DHT22;13279;51.300;12.394;2023-07-02T05:40:35;17.70;99.90
25328;DHT22;13279;51.300;12.394;2023-07-02T05:43:02;17.70;99.90
25328;DHT22;13279;51.300;12.394;2023-07-02T05:45:29;17.80;99.90
25328;DHT22;13279;51.300;12.394;2023-07-02T05:47:58;17.90;99.90
25328;DHT22;13279;51.300;12.394;2023-07-02T05:50:25;17.90;99.90
25328;DHT22;13279;51.300;12.394;2023-07-02T05:52:53;18.00;99.90
25328;DHT22;13279;51.300;12.394;2023-07-02T05:55:21;18.00;99.90
25328;DHT22;13279;51.300;12.394;2023-07-02T05:57:49;18.00;99.90
25328;DHT22;13279;51.300;12.394;2023-07-02T06:00:16;18.00;99.90
25328;DHT22;13279;51.300;12.394;2023-07-02T06:02:46;18.10;99.90
25328;DHT22;13279;51.300;12.394;2023-07-02T06:05:13;18.20;99.90
25328;DHT22;13279;51.300;12.394;2023-07-02T06:07:41;18.30;99.90
25328;DHT22;13279;51.300;12.394;2023-07-02T06:10:08;18.30;99.90
25328;DHT22;13279;51.300;12.394;2023-07-02T06:12:38;18.40;99.90
25328;DHT22;13279;51.300;12.394;2023-07-02T06:15:06;18.50;99.90
25328;DHT22;13279;51.300;12.394;2023-07-02T06:17:33;18.50;99.90
25328;DHT22;13279;51.300;12.394;2023-07-02T06:20:02;18.60;99.90
25328;DHT22;13279;51.300;12.394;2023-07-02T06:22:31;18.80;99.90
25328;DHT22;13279;51.300;12.394;2023-07-02T06:24:58;18.80;99.90
25328;DHT22;13279;51.300;12.394;2023-07-02T06:27:26;18.80;99.90
25328;DHT22;13279;51.300;12.394;2023-07-02T06:29:54;18.80;99.90
25328;DHT22;13279;51.300;12.394;2023-07-02T06:32:22;18.90;99.90
25328;DHT22;13279;51.300;12.394;2023-07-02T06:34:49;18.90;99.90
25328;DHT22;13279;51.300;12.394;2023-07-02T06:37:17;19.00;99.90
25328;DHT22;13279;51.300;12.394;2023-07-02T06:39:44;19.20;99.90
25328;DHT22;13279;51.300;12.394;2023-07-02T06:42:12;19.20;99.90
25328;DHT22;13279;51.300;12.394;2023-07-02T06:44:41;19.10;99.90
25328;DHT22;13279;51.300;12.394;2023-07-02T06:47:09;19.20;99.90
25328;DHT22;13279;51.300;12.394;2023-07-02T06:49:37;19.30;99.90
25328;DHT22;13279;51.300;12.394;2023-07-02T06:52:04;19.20;99.90
25328;DHT22;13279;51.300;12.394;2023-07-02T06:54:31;19.20;99.90
25328;DHT22;13279;51.300;12.394;2023-07-02T06:56:59;19.10;99.90
25328;DHT22;13279;51.300;12.394;2023-07-02T06:59:27;18.90;99.90
25328;DHT22;13279;51.300;12.394;2023-07-02T07:01:54;19.10;99.90
25328;DHT22;13279;51.300;12.394;2023-07-02T07:04:23;19.30;99.90
25328;DHT22;13279;51.300;12.394;2023-07-02T07:06:50;19.50;99.90
25328;DHT22;13279;51.300;12.394;2023-07-02T07:09:17;19.80;99.90
25328;DHT22;13279;51.300;12.394;2023-07-02T07:11:45;19.60;99.90
25328;DHT22;13279;51.300;12.394;2023-07-02T07:14:12;19.70;99.90
25328;DHT22;13279;51.300;12.394;2023-07-02T07:16:40;20.00;99.90
25328;DHT22;13279;51.300;12.394;2023-07-02T07:19:07;20.00;99.90
25328;DHT22;13279;51.300;12.394;2023-07-02T07:21:36;19.80;99.90
25328;DHT22;13279;51.300;12.394;2023-07-02T07:24:04;19.80;99.90
25328;DHT22;13279;51.300;12.394;2023-07-02T07:26:32;20.00;99.90
25328;DHT22;13279;51.300;12.394;2023-07-02T07:28:59;20.10;99.90
25328;DHT22;13279;51.300;12.394;2023-07-02T07:31:26;20.30;99.90
25328;DHT22;13279;51.300;12.394;2023-07-02T07:33:54;20.80;99.90
25328;DHT22;13279;51.300;12.394;2023-07-02T07:36:21;21.00;99.90
25328;DHT22;13279;51.300;12.394;2023-07-02T07:38:50;21.00;99.90
25328;DHT22;13279;51.300;12.394;2023-07-02T07:41:17;21.10;99.90
25328;DHT22;13279;51.300;12.394;2023-07-02T07:43:44;20.70;99.90
25328;DHT22;13279;51.300;12.394;2023-07-02T07:46:12;20.50;99.90
25328;DHT22;13279;51.300;12.394;2023-07-02T07:48:39;20.50;99.90
25328;DHT22;13279;51.300;12.394;2023-07-02T07:51:07;20.40;99.90
25328;DHT22;13279;51.300;12.394;2023-07-02T07:53:37;20.50;99.90
25328;DHT22;13279;51.300;12.394;2023-07-02T07:56:06;20.50;99.90
25328;DHT22;13279;51.300;12.394;2023-07-02T07:58:33;20.60;99.90
25328;DHT22;13279;51.300;12.394;2023-07-02T08:01:01;20.60;99.90
25328;DHT22;13279;51.300;12.394;2023-07-02T08:03:28;20.60;99.90
25328;DHT22;13279;51.300;12.394;2023-07-02T08:05:56;20.60;99.90
25328;DHT22;13279;51.300;12.394;2023-07-02T08:08:23;20.70;99.90
25328;DHT22;13279;51.300;12.394;2023-07-02T08:10:50;20.70;99.90
25328;DHT22;13279;51.300;12.394;2023-07-02T08:13:19;20.60;99.90
25328;DHT22;13279;51.300;12.394;2023-07-02T08:15:47;20.60;99.90
25328;DHT22;13279;51.300;12.394;2023-07-02T08:18:15;20.60;99.90
25328;DHT22;13279;51.300;12.394;2023-07-02T08:20:43;20.50;99.90
25328;DHT22;13279;51.300;12.394;2023-07-02T08:23:10;20.40;99.90
25328;DHT22;13279;51.300;12.394;2023-07-02T08:25:38;20.40;99.90
25328;DHT22;13279;51.300;12.394;2023-07-02T08:28:05;20.60;99.90
25328;DHT22;13279;51.300;12.394;2023-07-02T08:30:34;20.60;99.90
25328;DHT22;13279;51.300;12.394;2023-07-02T08:33:01;20.60;99.90
25328;DHT22;13279;51.300;12.394;2023-07-02T08:35:29;20.40;99.90
25328;DHT22;13279;51.300;12.394;2023-07-02T08:37:56;20.50;99.90
25328;DHT22;13279;51.300;12.394;2023-07-02T08:40:24;20.60;99.90
25328;DHT22;13279;51.300;12.394;2023-07-02T08:42:51;20.50;99.90
25328;DHT22;13279;51.300;12.394;2023-07-02T08:45:20;20.40;99.90
25328;DHT22;13279;51.300;12.394;2023-07-02T08:47:51;20.50;99.90
25328;DHT22;13279;51.300;12.394;2023-07-02T08:50:23;20.60;99.90
25328;DHT22;13279;51.300;12.394;2023-07-02T08:52:50;20.60;99.90
25328;DHT22;13279;51.300;12.394;2023-07-02T08:55:18;20.60;99.90
25328;DHT22;13279;51.300;12.394;2023-07-02T08:57:49;20.60;99.90
25328;DHT22;13279;51.300;12.394;2023-07-02T09:00:18;20.80;99.90
25328;DHT22;13279;51.300;12.394;2023-07-02T09:02:45;20.80;99.90
25328;DHT22;13279;51.300;12.394;2023-07-02T09:05:14;20.80;99.90
25328;DHT22;13279;51.300;12.394;2023-07-02T09:07:45;20.80;99.90
25328;DHT22;13279;51.300;12.394;2023-07-02T09:10:26;20.70;99.90
25328;DHT22;13279;51.300;12.394;2023-07-02T09:13:03;20.80;99.90
25328;DHT22;13279;51.300;12.394;2023-07-02T09:15:36;20.80;99.90
25328;DHT22;13279;51.300;12.394;2023-07-02T09:18:15;20.90;99.90
25328;DHT22;13279;51.300;12.394;2023-07-02T09:20:43;21.00;99.90
25328;DHT22;13279;51.300;12.394;2023-07-02T09:23:11;21.00;99.90
25328;DHT22;13279;51.300;12.394;2023-07-02T09:25:39;20.90;99.90
25328;DHT22;13279;51.300;12.394;2023-07-02T09:28:21;20.80;99.90
25328;DHT22;13279;51.300;12.394;2023-07-02T09:30:53;20.70;99.90
25328;DHT22;13279;51.300;12.394;2023-07-02T09:33:20;20.70;99.90
25328;DHT22;13279;51.300;12.394;2023-07-02T09:35:49;20.70;99.90
25328;DHT22;13279;51.300;12.394;2023-07-02T09:38:18;20.90;99.90
25328;DHT22;13279;51.300;12.394;2023-07-02T09:40:47;21.40;99.90
25328;DHT22;13279;51.300;12.394;2023-07-02T09:43:15;21.90;99.90
25328;DHT22;13279;51.300;12.394;2023-07-02T09:45:44;22.50;99.90
25328;DHT22;13279;51.300;12.394;2023-07-02T09:48:13;22.90;99.90
25328;DHT22;13279;51.300;12.394;2023-07-02T09:50:43;23.00;99.90
25328;DHT22;13279;51.300;12.394;2023-07-02T09:53:13;23.10;99.90
25328;DHT22;13279;51.300;12.394;2023-07-02T09:55:42;23.00;99.90
25328;DHT22;13279;51.300;12.394;2023-07-02T09:58:10;22.70;99.90
25328;DHT22;13279;51.300;12.394;2023-07-02T10:00:38;22.40;99.90
25328;DHT22;13279;51.300;12.394;2023-07-02T10:03:06;22.50;99.90
25328;DHT22;13279;51.300;12.394;2023-07-02T10:05:34;22.80;99.90
25328;DHT22;13279;51.300;12.394;2023-07-02T10:08:14;23.10;99.90
25328;DHT22;13279;51.300;12.394;2023-07-02T10:10:44;23.30;99.90
25328;DHT22;13279;51.300;12.394;2023-07-02T10:13:14;23.30;99.90
25328;DHT22;13279;51.300;12.394;2023-07-02T10:15:43;23.60;99.90
25328;DHT22;13279;51.300;12.394;2023-07-02T10:18:10;23.80;99.90
25328;DHT22;13279;51.300;12.394;2023-07-02T10:20:39;23.60;99.90
25328;DHT22;13279;51.300;12.394;2023-07-02T10:23:07;23.60;99.90
25328;DHT22;13279;51.300;12.394;2023-07-02T10:25:37;23.50;99.90
25328;DHT22;13279;51.300;12.394;2023-07-02T10:28:14;22.80;99.90
25328;DHT22;13279;51.300;12.394;2023-07-02T10:30:42;22.70;99.90
25328;DHT22;13279;51.300;12.394;2023-07-02T10:33:14;22.50;99.90
25328;DHT22;13279;51.300;12.394;2023-07-02T10:35:43;22.40;99.90
25328;DHT22;13279;51.300;12.394;2023-07-02T10:38:20;22.80;99.90
25328;DHT22;13279;51.300;12.394;2023-07-02T10:40:54;23.00;99.90
25328;DHT22;13279;51.300;12.394;2023-07-02T10:43:25;23.30;99.90
25328;DHT22;13279;51.300;12.394;2023-07-02T10:45:54;23.60;99.90
25328;DHT22;13279;51.300;12.394;2023-07-02T10:48:22;23.80;99.90
25328;DHT22;13279;51.300;12.394;2023-07-02T10:50:49;24.00;99.90
25328;DHT22;13279;51.300;12.394;2023-07-02T10:53:17;23.70;99.90
25328;DHT22;13279;51.300;12.394;2023-07-02T10:55:45;23.00;99.90
25328;DHT22;13279;51.300;12.394;2023-07-02T10:58:14;22.60;99.90
25328;DHT22;13279;51.300;12.394;2023-07-02T11:00:45;22.40;99.90
25328;DHT22;13279;51.300;12.394;2023-07-02T11:03:17;22.50;99.90
25328;DHT22;13279;51.300;12.394;2023-07-02T11:05:45;22.60;99.90
25328;DHT22;13279;51.300;12.394;2023-07-02T11:08:13;22.50;99.90
25328;DHT22;13279;51.300;12.394;2023-07-02T11:10:41;22.60;99.90
25328;DHT22;13279;51.300;12.394;2023-07-02T11:13:14;22.60;99.90
25328;DHT22;13279;51.300;12.394;2023-07-02T11:15:41;22.70;99.90
25328;DHT22;13279;51.300;12.394;2023-07-02T11:18:10;23.00;99.90
25328;DHT22;13279;51.300;12.394;2023-07-02T11:20:38;22.80;99.90
25328;DHT22;13279;51.300;12.394;2023-07-02T11:23:17;22.70;99.90
25328;DHT22;13279;51.300;12.394;2023-07-02T11:25:55;22.80;99.90
25328;DHT22;13279;51.300;12.394;2023-07-02T11:28:25;22.90;99.90
25328;DHT22;13279;51.300;12.394;2023-07-02T11:30:53;22.90;99.90
25328;DHT22;13279;51.300;12.394;2023-07-02T11:33:32;22.70;99.90
25328;DHT22;13279;51.300;12.394;2023-07-02T11:36:00;22.30;99.90
25328;DHT22;13279;51.300;12.394;2023-07-02T11:38:27;22.10;99.90
25328;DHT22;13279;51.300;12.394;2023-07-02T11:40:55;22.10;99.90
25328;DHT22;13279;51.300;12.394;2023-07-02T11:43:23;22.10;99.90
25328;DHT22;13279;51.300;12.394;2023-07-02T11:45:51;22.00;99.90
25328;DHT22;13279;51.300;12.394;2023-07-02T11:48:18;22.10;99.90
25328;DHT22;13279;51.300;12.394;2023-07-02T11:50:45;22.40;99.90
25328;DHT22;13279;51.300;12.394;2023-07-02T11:53:14;22.60;99.90
25328;DHT22;13279;51.300;12.394;2023-07-02T11:55:41;22.90;99.90
25328;DHT22;13279;51.300;12.394;2023-07-02T11:58:08;23.20;99.90
25328;DHT22;13279;51.300;12.394;2023-07-02T12:00:37;23.30;99.90
25328;DHT22;13279;51.300;12.394;2023-07-02T12:03:05;23.20;99.90
25328;DHT22;13279;51.300;12.394;2023-07-02T12:05:32;23.40;99.90
25328;DHT22;13279;51.300;12.394;2023-07-02T12:08:02;23.40;99.90
25328;DHT22;13279;51.300;12.394;2023-07-02T12:10:29;23.10;99.90
25328;DHT22;13279;51.300;12.394;2023-07-02T12:12:57;22.90;99.90
25328;DHT22;13279;51.300;12.394;2023-07-02T12:15:25;23.00;99.90
25328;DHT22;13279;51.300;12.394;2023-07-02T12:17:54;23.50;99.90
25328;DHT22;13279;51.300;12.394;2023-07-02T12:20:21;23.40;99.90
25328;DHT22;13279;51.300;12.394;2023-07-02T12:22:49;23.30;99.90
25328;DHT22;13279;51.300;12.394;2023-07-02T12:25:16;22.90;99.90
25328;DHT22;13279;51.300;12.394;2023-07-02T12:27:44;22.80;99.90
25328;DHT22;13279;51.300;12.394;2023-07-02T12:30:11;22.50;99.90
25328;DHT22;13279;51.300;12.394;2023-07-02T12:32:43;22.50;99.90
25328;DHT22;13279;51.300;12.394;2023-07-02T12:35:11;22.20;99.90
25328;DHT22;13279;51.300;12.394;2023-07-02T12:37:46;22.20;99.90
25328;DHT22;13279;51.300;12.394;2023-07-02T12:40:14;22.40;99.90
25328;DHT22;13279;51.300;12.394;2023-07-02T12:42:42;22.60;99.90
25328;DHT22;13279;51.300;12.394;2023-07-02T12:45:10;22.90;99.90
25328;DHT22;13279;51.300;12.394;2023-07-02T12:47:38;23.40;99.90
25328;DHT22;13279;51.300;12.394;2023-07-02T12:50:06;23.70;99.90
25328;DHT22;13279;51.300;12.394;2023-07-02T12:52:35;23.70;99.90
25328;DHT22;13279;51.300;12.394;2023-07-02T12:55:04;23.70;99.90
25328;DHT22;13279;51.300;12.394;2023-07-02T12:57:32;23.50;99.90
25328;DHT22;13279;51.300;12.394;2023-07-02T12:59:59;23.20;99.90
25328;DHT22;13279;51.300;12.394;2023-07-02T13:02:26;22.80;99.90
25328;DHT22;13279;51.300;12.394;2023-07-02T13:04:53;22.60;99.90
25328;DHT22;13279;51.300;12.394;2023-07-02T13:07:21;22.40;99.90
25328;DHT22;13279;51.300;12.394;2023-07-02T13:09:51;22.40;99.90
25328;DHT22;13279;51.300;12.394;2023-07-02T13:12:18;23.00;99.90
25328;DHT22;13279;51.300;12.394;2023-07-02T13:14:46;23.40;99.90
25328;DHT22;13279;51.300;12.394;2023-07-02T13:17:13;23.70;99.90
25328;DHT22;13279;51.300;12.394;2023-07-02T13:19:41;24.10;99.90
25328;DHT22;13279;51.300;12.394;2023-07-02T13:22:08;24.00;99.90
25328;DHT22;13279;51.300;12.394;2023-07-02T13:24:36;23.50;99.90
25328;DHT22;13279;51.300;12.394;2023-07-02T13:27:11;23.10;99.90
25328;DHT22;13279;51.300;12.394;2023-07-02T13:29:39;22.50;99.90
25328;DHT22;13279;51.300;12.394;2023-07-02T13:32:08;22.60;99.90
25328;DHT22;13279;51.300;12.394;2023-07-02T13:34:35;22.70;99.90
25328;DHT22;13279;51.300;12.394;2023-07-02T13:37:03;23.40;99.90
25328;DHT22;13279;51.300;12.394;2023-07-02T13:39:31;23.90;99.90
25328;DHT22;13279;51.300;12.394;2023-07-02T13:41:58;24.60;99.90
25328;DHT22;13279;51.300;12.394;2023-07-02T13:44:27;24.70;99.90
25328;DHT22;13279;51.300;12.394;2023-07-02T13:46:55;24.70;99.90
25328;DHT22;13279;51.300;12.394;2023-07-02T13:49:22;25.00;99.90
25328;DHT22;13279;51.300;12.394;2023-07-02T13:51:50;24.30;99.90
25328;DHT22;13279;51.300;12.394;2023-07-02T13:54:17;23.90;99.90
25328;DHT22;13279;51.300;12.394;2023-07-02T13:56:45;24.00;99.90
25328;DHT22;13279;51.300;12.394;2023-07-02T13:59:15;24.20;99.90
25328;DHT22;13279;51.300;12.394;2023-07-02T14:01:44;24.40;99.90
25328;DHT22;13279;51.300;12.394;2023-07-02T14:04:12;24.10;99.90
25328;DHT22;13279;51.300;12.394;2023-07-02T14:06:39;24.10;99.90
25328;DHT22;13279;51.300;12.394;2023-07-02T14:09:07;24.10;99.90
25328;DHT22;13279;51.300;12.394;2023-07-02T14:11:39;24.00;99.90
25328;DHT22;13279;51.300;12.394;2023-07-02T14:14:07;24.00;99.90
25328;DHT22;13279;51.300;12.394;2023-07-02T14:16:36;24.00;99.90
25328;DHT22;13279;51.300;12.394;2023-07-02T14:19:04;24.50;99.90
25328;DHT22;13279;51.300;12.394;2023-07-02T14:21:32;24.20;99.90
25328;DHT22;13279;51.300;12.394;2023-07-02T14:23:59;23.60;99.90
25328;DHT22;13279;51.300;12.394;2023-07-02T14:26:26;23.50;99.90
25328;DHT22;13279;51.300;12.394;2023-07-02T14:28:54;23.40;99.90
25328;DHT22;13279;51.300;12.394;2023-07-02T14:31:22;23.30;99.90
25328;DHT22;13279;51.300;12.394;2023-07-02T14:33:50;23.20;99.90
25328;DHT22;13279;51.300;12.394;2023-07-02T14:36:18;23.10;99.90
25328;DHT22;13279;51.300;12.394;2023-07-02T14:38:45;22.90;99.90
25328;DHT22;13279;51.300;12.394;2023-07-02T14:41:13;22.80;99.90
25328;DHT22;13279;51.300;12.394;2023-07-02T14:43:40;22.80;99.90
25328;DHT22;13279;51.300;12.394;2023-07-02T14:46:08;22.80;99.90
25328;DHT22;13279;51.300;12.394;2023-07-02T14:48:35;22.70;99.90
25328;DHT22;13279;51.300;12.394;2023-07-02T14:51:05;23.10;99.90
25328;DHT22;13279;51.300;12.394;2023-07-02T14:53:34;23.40;99.90
25328;DHT22;13279;51.300;12.394;2023-07-02T14:56:02;23.50;99.90
25328;DHT22;13279;51.300;12.394;2023-07-02T14:58:30;24.00;99.90
25328;DHT22;13279;51.300;12.394;2023-07-02T15:00:58;24.20;99.90
25328;DHT22;13279;51.300;12.394;2023-07-02T15:03:27;24.30;99.90
25328;DHT22;13279;51.300;12.394;2023-07-02T15:06:04;24.40;99.90
25328;DHT22;13279;51.300;12.394;2023-07-02T15:08:33;24.80;99.90
25328;DHT22;13279;51.300;12.394;2023-07-02T15:11:02;24.90;99.90
25328;DHT22;13279;51.300;12.394;2023-07-02T15:13:30;24.60;99.90
25328;DHT22;13279;51.300;12.394;2023-07-02T15:15:57;24.30;99.90
25328;DHT22;13279;51.300;12.394;2023-07-02T15:18:25;23.90;99.90
25328;DHT22;13279;51.300;12.394;2023-07-02T15:20:53;23.60;99.90
25328;DHT22;13279;51.300;12.394;2023-07-02T15:23:22;23.60;99.90